Terminal Aerodrome Forecast
Issued by NWS Charleston, WV

Current Version | Previous Version | Text Only | Print | Product List | Glossary Off
Versions: 1 2 3 4 5 6 7 8 9 10 11 12 13 14 15 16 17 18 19 20 21 22 23 24 25 26 27 28 29 30 31 32 33 34 35 36 37

790
FTUS41 KRLX 220314 AAA
TAFHTS
TAF AMD
KHTS 220314Z 2203/2224 01007KT P6SM OVC008
      TEMPO 2204/2208 3SM -SHRA SCT002 OVC008
     FM220800 04006KT 1SM -SHRA OVC008
     FM221700 34005KT 5SM -SHRA OVC010=

USA.gov is the U.S. government's official web portal to all federal, state and local government web resources and services.